createdAt,value
2023-01-13T00:01:28.955Z,57.29
2023-01-13T00:03:56.372Z,57.25
2023-01-13T00:06:29.162Z,57.37
2023-01-13T00:08:56.082Z,57.25
2023-01-13T00:11:23.260Z,57.32
2023-01-13T00:13:50.348Z,57.30
2023-01-13T00:16:18.506Z,56.94
2023-01-13T00:18:46.737Z,56.94
2023-01-13T00:21:19.379Z,56.82
2023-01-13T00:23:46.429Z,56.89
2023-01-13T00:26:18.855Z,56.96
2023-01-13T00:28:45.943Z,56.78
2023-01-13T00:31:18.287Z,56.65
2023-01-13T00:33:45.276Z,56.82
2023-01-13T00:36:14.366Z,56.84
2023-01-13T00:38:43.046Z,56.66
2023-01-13T00:41:12.459Z,56.84
2023-01-13T00:43:39.440Z,56.50
2023-01-13T00:46:08.225Z,56.58
2023-01-13T00:48:35.618Z,56.44
2023-01-13T00:51:21.726Z,56.31
2023-01-13T00:53:51.054Z,56.27
2023-01-13T00:56:38.594Z,55.63
2023-01-13T00:59:06.385Z,55.81
2023-01-13T01:01:33.330Z,55.92
2023-01-13T01:04:00.278Z,55.88
2023-01-13T01:06:28.043Z,55.82
2023-01-13T01:08:55.831Z,56.08
2023-01-13T01:11:28.237Z,56.00
2023-01-13T01:13:57.321Z,56.03
2023-01-13T01:16:25.791Z,56.14
2023-01-13T01:18:53.877Z,56.33
2023-01-13T01:21:22.198Z,56.30
2023-01-13T01:23:48.833Z,56.32
2023-01-13T01:26:19.419Z,56.46
2023-01-13T01:28:46.904Z,56.28
2023-01-13T01:31:25.360Z,56.27
2023-01-13T01:33:54.035Z,56.29
2023-01-13T01:36:23.159Z,56.46
2023-01-13T01:38:50.447Z,56.75
2023-01-13T01:41:21.394Z,56.38
2023-01-13T01:44:00.218Z,56.63
2023-01-13T01:46:32.674Z,56.63
2023-01-13T01:49:24.801Z,56.69
2023-01-13T01:51:57.403Z,56.55
2023-01-13T01:54:43.567Z,56.72
2023-01-13T01:57:15.935Z,56.62
2023-01-13T01:59:43.909Z,56.66
2023-01-13T02:02:11.390Z,56.91
2023-01-13T02:04:41.206Z,57.04
2023-01-13T02:07:08.517Z,57.04
2023-01-13T02:09:36.502Z,56.84
2023-01-13T02:12:21.744Z,56.92
2023-01-13T02:14:48.539Z,57.02
2023-01-13T02:17:21.246Z,56.85
2023-01-13T02:20:28.018Z,57.07
2023-01-13T02:23:47.691Z,57.14
2023-01-13T02:26:39.252Z,56.92
2023-01-13T02:29:52.972Z,57.06
2023-01-13T02:32:32.224Z,56.90
2023-01-13T02:35:17.832Z,57.14
2023-01-13T02:37:45.227Z,56.84
2023-01-13T02:40:38.022Z,57.04
2023-01-13T02:43:33.499Z,57.12
2023-01-13T02:46:14.643Z,57.26
2023-01-13T02:48:45.304Z,57.19
2023-01-13T02:51:19.144Z,57.09
2023-01-13T02:54:21.731Z,57.06
2023-01-13T02:56:51.169Z,57.15
2023-01-13T02:59:18.839Z,57.16
2023-01-13T03:01:46.873Z,57.06
2023-01-13T03:04:53.338Z,57.29
2023-01-13T03:07:30.485Z,57.30
2023-01-13T03:10:20.106Z,57.24
2023-01-13T03:12:56.534Z,56.91
2023-01-13T03:15:40.373Z,57.16
2023-01-13T03:18:19.619Z,57.11
2023-01-13T03:20:58.614Z,56.98
2023-01-13T03:23:33.228Z,57.36
2023-01-13T03:26:16.412Z,57.51
2023-01-13T03:28:49.621Z,57.60
2023-01-13T03:31:24.584Z,57.13
2023-01-13T03:33:59.706Z,57.11
2023-01-13T03:36:28.978Z,57.25
2023-01-13T03:39:04.115Z,57.21
2023-01-13T03:42:03.975Z,57.29
2023-01-13T03:44:35.749Z,57.10
2023-01-13T03:47:21.088Z,57.10
2023-01-13T03:50:16.337Z,57.20
2023-01-13T03:52:51.034Z,57.09
2023-01-13T03:55:22.674Z,57.19
2023-01-13T03:57:56.818Z,57.29
2023-01-13T04:00:28.420Z,56.94
2023-01-13T04:03:05.188Z,57.29
2023-01-13T04:05:36.391Z,57.21
2023-01-13T04:08:15.717Z,57.25
2023-01-13T04:10:48.013Z,57.29
2023-01-13T04:13:21.937Z,57.54
2023-01-13T04:15:49.969Z,57.46
2023-01-13T04:18:18.700Z,57.33
2023-01-13T04:20:48.001Z,57.28
2023-01-13T04:23:14.910Z,57.43
2023-01-13T04:25:42.519Z,57.42
2023-01-13T04:28:10.041Z,57.57
2023-01-13T04:30:37.790Z,57.30
2023-01-13T04:33:05.276Z,57.60
2023-01-13T04:35:33.562Z,57.28
2023-01-13T04:38:11.494Z,57.38
2023-01-13T04:40:39.059Z,57.17
2023-01-13T04:43:06.258Z,57.32
2023-01-13T04:45:33.387Z,57.37
2023-01-13T04:48:00.586Z,57.35
2023-01-13T04:50:27.915Z,57.42
2023-01-13T04:52:55.385Z,57.34
2023-01-13T04:55:25.788Z,57.45
2023-01-13T04:57:52.719Z,57.26
2023-01-13T05:00:21.967Z,57.36
2023-01-13T05:02:51.573Z,57.61
2023-01-13T05:05:18.634Z,57.40
2023-01-13T05:07:48.850Z,57.29
2023-01-13T05:10:16.003Z,57.06
2023-01-13T05:13:01.182Z,57.06
2023-01-13T05:15:46.412Z,57.32
2023-01-13T05:18:13.362Z,57.16
2023-01-13T05:20:40.372Z,57.23
2023-01-13T05:23:30.161Z,57.14
2023-01-13T05:25:56.866Z,56.93
2023-01-13T05:28:24.583Z,57.20
2023-01-13T05:30:52.417Z,57.38
2023-01-13T05:33:23.201Z,57.18
2023-01-13T05:35:50.087Z,57.26
2023-01-13T05:38:18.088Z,57.36
2023-01-13T05:41:03.644Z,57.43
2023-01-13T05:43:30.668Z,57.58
2023-01-13T05:46:08.242Z,57.80
2023-01-13T05:48:40.295Z,57.21
2023-01-13T05:51:09.537Z,56.96
2023-01-13T05:53:36.478Z,57.10
2023-01-13T05:56:07.324Z,56.92
2023-01-13T05:58:34.897Z,56.83
2023-01-13T06:01:05.484Z,56.62
2023-01-13T06:03:32.172Z,58.21
2023-01-13T06:06:01.689Z,58.70
2023-01-13T06:08:28.672Z,57.11
2023-01-13T06:10:55.518Z,57.25
2023-01-13T06:13:22.731Z,57.09
2023-01-13T06:15:49.432Z,57.67
2023-01-13T06:18:16.267Z,57.28
2023-01-13T06:20:42.925Z,57.37
2023-01-13T06:23:11.660Z,57.39
2023-01-13T06:25:50.607Z,57.46
2023-01-13T06:28:17.340Z,57.22
2023-01-13T06:30:49.220Z,57.36
2023-01-13T06:33:26.914Z,57.40
2023-01-13T06:35:58.935Z,57.49
2023-01-13T06:38:29.166Z,57.30
2023-01-13T06:40:56.641Z,57.50
2023-01-13T06:43:23.769Z,57.55
2023-01-13T06:45:55.622Z,57.56
2023-01-13T06:48:30.015Z,57.56
2023-01-13T06:50:57.272Z,57.48
2023-01-13T06:53:24.405Z,57.20
2023-01-13T06:55:51.327Z,57.56
2023-01-13T06:58:18.192Z,57.53
2023-01-13T07:00:44.900Z,57.36
2023-01-13T07:03:16.271Z,57.36
2023-01-13T07:05:50.831Z,57.59
2023-01-13T07:08:17.814Z,57.66
2023-01-13T07:10:44.454Z,57.78
2023-01-13T07:13:29.917Z,57.58
2023-01-13T07:15:59.171Z,57.55
2023-01-13T07:18:27.737Z,57.35
2023-01-13T07:21:03.387Z,57.59
2023-01-13T07:23:32.747Z,57.49
2023-01-13T07:25:59.600Z,57.59
2023-01-13T07:28:27.601Z,57.46
2023-01-13T07:30:54.436Z,57.48
2023-01-13T07:33:21.600Z,57.35
2023-01-13T07:35:49.126Z,57.42
2023-01-13T07:38:16.260Z,57.43
2023-01-13T07:40:43.083Z,57.49
2023-01-13T07:43:31.086Z,57.30
2023-01-13T07:46:07.150Z,57.00
2023-01-13T07:48:34.880Z,57.30
2023-01-13T07:51:03.307Z,57.96
2023-01-13T07:53:30.182Z,58.32
2023-01-13T07:55:58.322Z,58.20
2023-01-13T07:58:26.514Z,58.02
2023-01-13T08:00:53.954Z,57.78
2023-01-13T08:03:21.240Z,57.47
2023-01-13T08:05:48.404Z,57.33
2023-01-13T08:08:15.836Z,57.13
2023-01-13T08:10:42.550Z,57.24
2023-01-13T08:13:17.597Z,57.16
2023-01-13T08:15:45.152Z,56.68
2023-01-13T08:18:12.405Z,56.68
2023-01-13T08:20:39.271Z,56.38
2023-01-13T08:23:07.353Z,56.40
2023-01-13T08:25:36.458Z,55.84
2023-01-13T08:28:03.657Z,55.74
2023-01-13T08:30:30.578Z,55.69
2023-01-13T08:32:57.468Z,55.47
2023-01-13T08:35:24.520Z,55.41
2023-01-13T08:37:51.770Z,55.29
2023-01-13T08:40:20.792Z,55.04
2023-01-13T08:42:48.691Z,55.09
2023-01-13T08:45:15.662Z,54.84
2023-01-13T08:47:42.690Z,54.90
2023-01-13T08:50:10.579Z,54.96
2023-01-13T08:52:37.494Z,55.17
2023-01-13T08:55:04.490Z,54.80
2023-01-13T08:57:31.200Z,54.88
2023-01-13T08:59:57.908Z,54.96
2023-01-13T09:02:26.129Z,55.26
2023-01-13T09:04:53.977Z,55.04
2023-01-13T09:07:21.483Z,54.94
2023-01-13T09:09:48.386Z,54.76
2023-01-13T09:12:34.787Z,54.76
2023-01-13T09:15:02.095Z,54.85
2023-01-13T09:17:29.011Z,54.91
2023-01-13T09:19:55.772Z,54.77
2023-01-13T09:22:26.925Z,54.69
2023-01-13T09:24:55.109Z,54.59
2023-01-13T09:27:23.613Z,54.59
2023-01-13T09:29:50.470Z,54.59
2023-01-13T09:32:17.136Z,54.35
2023-01-13T09:35:02.315Z,54.38
2023-01-13T09:37:35.348Z,54.46
2023-01-13T09:40:03.993Z,54.38
2023-01-13T09:43:12.399Z,54.29
2023-01-13T09:45:49.725Z,54.24
2023-01-13T09:48:24.705Z,54.08
2023-01-13T09:50:58.625Z,54.21
2023-01-13T09:53:39.974Z,54.06
2023-01-13T09:56:11.044Z,54.03
2023-01-13T09:58:37.853Z,54.33
2023-01-13T10:01:08.649Z,53.99
2023-01-13T10:03:38.089Z,53.88
2023-01-13T10:06:10.980Z,54.06
2023-01-13T10:08:45.211Z,54.09
2023-01-13T10:11:38.917Z,53.98
2023-01-13T10:14:27.379Z,53.94
2023-01-13T10:17:28.072Z,54.03
2023-01-13T10:20:17.882Z,53.96
2023-01-13T10:22:50.596Z,53.87
2023-01-13T10:25:38.993Z,53.99
2023-01-13T10:28:11.325Z,53.91
2023-01-13T10:30:44.097Z,53.97
2023-01-13T10:33:17.545Z,53.81
2023-01-13T10:36:03.947Z,53.74
2023-01-13T10:38:48.560Z,53.64
2023-01-13T10:41:15.243Z,53.94
2023-01-13T10:44:04.453Z,53.54
2023-01-13T10:47:02.531Z,53.84
2023-01-13T10:49:32.952Z,53.63
2023-01-13T10:52:02.070Z,53.78
2023-01-13T10:54:29.503Z,53.79
2023-01-13T10:57:36.237Z,53.61
2023-01-13T11:00:05.368Z,53.42
2023-01-13T11:02:35.869Z,53.43
2023-01-13T11:05:16.149Z,53.69
2023-01-13T11:07:52.651Z,53.67
2023-01-13T11:10:23.393Z,53.30
2023-01-13T11:13:14.980Z,53.23
2023-01-13T11:16:16.581Z,52.97
2023-01-13T11:19:14.374Z,52.57
2023-01-13T11:21:56.169Z,52.80
2023-01-13T11:24:36.351Z,52.23
2023-01-13T11:27:17.725Z,52.60
2023-01-13T11:29:59.256Z,52.52
2023-01-13T11:32:31.172Z,52.55
2023-01-13T11:35:03.107Z,52.37
2023-01-13T11:37:40.055Z,52.33
2023-01-13T11:40:25.631Z,52.29
2023-01-13T11:43:03.851Z,52.49
2023-01-13T11:45:55.257Z,52.46
2023-01-13T11:48:27.088Z,52.38
2023-01-13T11:51:16.109Z,52.44
2023-01-13T11:54:16.353Z,52.33
2023-01-13T11:57:10.677Z,52.43
2023-01-13T12:00:09.437Z,52.69
2023-01-13T12:02:48.371Z,52.55
2023-01-13T12:05:23.891Z,52.51
2023-01-13T12:08:20.326Z,52.68
2023-01-13T12:10:58.666Z,52.49
2023-01-13T12:13:46.905Z,52.43
2023-01-13T12:16:25.436Z,52.49
2023-01-13T12:19:19.497Z,52.79
2023-01-13T12:21:57.877Z,52.17
2023-01-13T12:24:39.708Z,52.42
2023-01-13T12:27:15.999Z,52.29
2023-01-13T12:29:44.778Z,52.65
2023-01-13T12:32:21.312Z,52.77
2023-01-13T12:35:11.475Z,52.73
2023-01-13T12:38:01.587Z,52.67
2023-01-13T12:41:15.521Z,52.76
2023-01-13T12:44:06.385Z,53.02
2023-01-13T12:46:34.602Z,52.86
2023-01-13T12:49:01.416Z,53.05
2023-01-13T12:51:57.247Z,53.16
2023-01-13T12:54:45.077Z,53.06
2023-01-13T12:57:21.548Z,54.17
2023-01-13T13:00:03.013Z,54.37
2023-01-13T13:02:34.481Z,54.11
2023-01-13T13:05:24.218Z,54.19
2023-01-13T13:08:25.826Z,54.15
2023-01-13T13:11:02.766Z,53.95
2023-01-13T13:13:48.496Z,53.75
2023-01-13T13:16:27.413Z,53.62
2023-01-13T13:19:20.253Z,53.47
2023-01-13T13:22:16.420Z,53.56
2023-01-13T13:25:03.043Z,53.35
2023-01-13T13:27:40.237Z,53.30
2023-01-13T13:30:30.399Z,53.40
2023-01-13T13:33:15.840Z,53.19
2023-01-13T13:36:13.319Z,53.15
2023-01-13T13:39:31.036Z,53.22
2023-01-13T13:42:30.330Z,53.20
2023-01-13T13:45:18.291Z,53.39
2023-01-13T13:47:45.083Z,53.24
2023-01-13T13:50:20.434Z,53.46
2023-01-13T13:53:05.292Z,53.20
2023-01-13T13:55:32.890Z,53.25
2023-01-13T13:58:01.636Z,53.07
2023-01-13T14:00:32.034Z,53.00
2023-01-13T14:03:21.816Z,53.22
2023-01-13T14:05:59.374Z,53.25
2023-01-13T14:08:28.661Z,53.28
2023-01-13T14:10:55.186Z,53.31
2023-01-13T14:13:27.794Z,52.99
2023-01-13T14:16:01.945Z,53.23
2023-01-13T14:18:32.899Z,53.03
2023-01-13T14:21:05.688Z,53.04
2023-01-13T14:23:34.147Z,52.99
2023-01-13T14:26:06.941Z,53.03
2023-01-13T14:28:40.860Z,52.96
2023-01-13T14:31:09.582Z,53.19
2023-01-13T14:33:41.842Z,53.27
2023-01-13T14:36:14.772Z,53.65
2023-01-13T14:38:43.324Z,53.34
2023-01-13T14:41:28.339Z,53.13
2023-01-13T14:43:59.232Z,53.05
2023-01-13T14:46:43.696Z,52.77
2023-01-13T14:49:31.079Z,53.15
2023-01-13T14:52:28.109Z,52.87
2023-01-13T14:55:15.098Z,53.05
2023-01-13T14:57:41.894Z,53.02
2023-01-13T15:00:14.129Z,52.83
2023-01-13T15:02:47.769Z,53.00
2023-01-13T15:05:36.085Z,52.63
2023-01-13T15:08:12.193Z,52.67
2023-01-13T15:10:44.953Z,52.75
2023-01-13T15:13:24.502Z,52.68
2023-01-13T15:15:55.836Z,52.72
2023-01-13T15:18:22.603Z,52.93
2023-01-13T15:20:50.917Z,52.83
2023-01-13T15:23:19.334Z,52.65
2023-01-13T15:25:47.596Z,52.52
2023-01-13T15:28:19.557Z,52.63
2023-01-13T15:30:47.170Z,52.63
2023-01-13T15:33:14.976Z,52.85
2023-01-13T15:35:47.317Z,52.60
2023-01-13T15:38:18.950Z,53.00
2023-01-13T15:40:46.540Z,52.99
2023-01-13T15:43:40.295Z,52.94
2023-01-13T15:46:38.505Z,52.85
2023-01-13T15:49:13.420Z,52.85
2023-01-13T15:51:40.366Z,52.85
2023-01-13T15:54:24.553Z,52.96
2023-01-13T15:56:52.417Z,52.74
2023-01-13T15:59:24.014Z,53.08
2023-01-13T16:01:50.770Z,52.70
2023-01-13T16:04:17.574Z,53.11
2023-01-13T16:06:44.724Z,52.87
2023-01-13T16:09:14.279Z,52.78
2023-01-13T16:11:41.202Z,52.80
2023-01-13T16:14:08.079Z,52.96
2023-01-13T16:16:35.740Z,52.95
2023-01-13T16:19:02.666Z,52.83
2023-01-13T16:21:29.422Z,52.58
2023-01-13T16:23:56.135Z,52.87
2023-01-13T16:26:25.855Z,52.38
2023-01-13T16:28:54.874Z,52.48
2023-01-13T16:31:31.915Z,52.67
2023-01-13T16:34:00.486Z,52.64
2023-01-13T16:36:29.168Z,52.67
2023-01-13T16:38:57.259Z,53.28
2023-01-13T16:41:25.041Z,53.31
2023-01-13T16:44:10.518Z,53.61
2023-01-13T16:46:37.204Z,53.25
2023-01-13T16:49:06.253Z,52.92
2023-01-13T16:51:33.752Z,53.01
2023-01-13T16:54:00.580Z,53.09
2023-01-13T16:56:28.510Z,53.00
2023-01-13T16:58:57.861Z,53.01
2023-01-13T17:01:26.384Z,53.06
2023-01-13T17:03:53.968Z,52.72
2023-01-13T17:06:25.503Z,52.88
2023-01-13T17:08:57.475Z,52.63
2023-01-13T17:11:24.147Z,52.63
2023-01-13T17:13:50.948Z,52.80
2023-01-13T17:16:22.708Z,52.63
2023-01-13T17:18:50.463Z,52.91
2023-01-13T17:21:17.578Z,52.96
2023-01-13T17:23:44.769Z,52.81
2023-01-13T17:26:37.127Z,52.78
2023-01-13T17:29:07.180Z,52.59
2023-01-13T17:31:35.683Z,53.31
2023-01-13T17:34:04.117Z,54.01
2023-01-13T17:36:31.069Z,54.07
2023-01-13T17:38:58.294Z,53.56
2023-01-13T17:41:25.977Z,53.47
2023-01-13T17:43:53.608Z,53.17
2023-01-13T17:46:24.730Z,53.16
2023-01-13T17:48:53.621Z,53.17
2023-01-13T17:51:22.680Z,53.33
2023-01-13T17:53:49.665Z,53.26
2023-01-13T17:56:17.255Z,52.87
2023-01-13T17:58:45.483Z,52.53
2023-01-13T18:01:18.605Z,52.90
2023-01-13T18:03:46.002Z,53.01
2023-01-13T18:06:23.613Z,52.56
2023-01-13T18:08:51.651Z,52.74
2023-01-13T18:11:21.332Z,52.72
2023-01-13T18:13:50.125Z,52.75
2023-01-13T18:16:19.218Z,52.49
2023-01-13T18:18:48.166Z,52.62
2023-01-13T18:21:41.389Z,52.92
2023-01-13T18:24:32.091Z,52.37
2023-01-13T18:27:18.234Z,52.56
2023-01-13T18:29:46.092Z,52.88
2023-01-13T18:32:13.688Z,53.21
2023-01-13T18:34:40.822Z,52.92
2023-01-13T18:37:09.476Z,52.93
2023-01-13T18:39:37.459Z,52.95
2023-01-13T18:42:24.598Z,52.72
2023-01-13T18:44:52.568Z,52.85
2023-01-13T18:47:19.286Z,52.52
2023-01-13T18:49:46.636Z,52.85
2023-01-13T18:52:13.737Z,52.90
2023-01-13T18:54:40.348Z,52.78
2023-01-13T18:57:07.336Z,52.75
2023-01-13T18:59:34.734Z,52.84
2023-01-13T19:02:02.934Z,52.71
2023-01-13T19:04:29.832Z,52.67
2023-01-13T19:07:00.916Z,52.68
2023-01-13T19:09:29.187Z,52.76
2023-01-13T19:11:57.321Z,52.96
2023-01-13T19:14:34.263Z,52.56
2023-01-13T19:17:09.819Z,52.87
2023-01-13T19:19:44.654Z,52.86
2023-01-13T19:22:13.898Z,52.99
2023-01-13T19:24:43.679Z,52.83
2023-01-13T19:27:12.173Z,52.86
2023-01-13T19:29:51.601Z,52.72
2023-01-13T19:32:21.890Z,52.70
2023-01-13T19:34:51.228Z,52.78
2023-01-13T19:37:19.477Z,52.92
2023-01-13T19:39:46.077Z,52.50
2023-01-13T19:42:32.277Z,53.01
2023-01-13T19:45:17.227Z,52.67
2023-01-13T19:47:45.514Z,52.52
2023-01-13T19:50:13.630Z,52.66
2023-01-13T19:52:41.864Z,52.53
2023-01-13T19:55:09.842Z,52.82
2023-01-13T19:57:38.251Z,52.44
2023-01-13T20:00:07.995Z,52.79
2023-01-13T20:02:49.075Z,52.69
2023-01-13T20:05:25.931Z,52.46
2023-01-13T20:07:53.036Z,52.63
2023-01-13T20:10:21.895Z,52.72
2023-01-13T20:12:48.804Z,52.46
2023-01-13T20:15:15.958Z,52.54
2023-01-13T20:17:42.788Z,52.51
2023-01-13T20:20:10.729Z,52.73
2023-01-13T20:22:38.693Z,52.48
2023-01-13T20:25:06.326Z,52.60
2023-01-13T20:27:33.248Z,52.44
2023-01-13T20:30:00.106Z,53.06
2023-01-13T20:32:26.901Z,52.99
2023-01-13T20:34:53.562Z,53.02
2023-01-13T20:37:20.151Z,52.71
2023-01-13T20:39:47.501Z,52.80
2023-01-13T20:42:29.435Z,52.79
2023-01-13T20:44:57.671Z,52.89
2023-01-13T20:47:25.845Z,52.92
2023-01-13T20:49:54.926Z,53.07
2023-01-13T20:52:21.660Z,52.67
2023-01-13T20:54:48.333Z,52.71
2023-01-13T20:57:14.950Z,52.60
2023-01-13T20:59:41.845Z,52.84
2023-01-13T21:02:13.240Z,52.91
2023-01-13T21:04:40.542Z,52.75
2023-01-13T21:07:08.174Z,52.58
2023-01-13T21:09:35.029Z,52.86
2023-01-13T21:12:20.602Z,52.85
2023-01-13T21:15:06.087Z,53.00
2023-01-13T21:17:51.343Z,53.25
2023-01-13T21:20:18.468Z,53.11
2023-01-13T21:22:46.819Z,53.09
2023-01-13T21:25:14.549Z,53.03
2023-01-13T21:27:43.821Z,52.95
2023-01-13T21:30:15.084Z,53.07
2023-01-13T21:32:43.606Z,53.05
2023-01-13T21:35:11.828Z,53.20
2023-01-13T21:37:39.983Z,53.41
2023-01-13T21:40:10.223Z,53.47
2023-01-13T21:42:55.851Z,53.46
2023-01-13T21:45:41.714Z,53.50
2023-01-13T21:48:08.817Z,53.46
2023-01-13T21:50:37.293Z,53.84
2023-01-13T21:53:04.509Z,53.96
2023-01-13T21:55:32.338Z,54.20
2023-01-13T21:58:11.690Z,54.27
2023-01-13T22:00:41.940Z,54.25
2023-01-13T22:03:09.911Z,54.27
2023-01-13T22:05:36.862Z,54.22
2023-01-13T22:08:04.127Z,54.45
2023-01-13T22:10:31.661Z,54.25
2023-01-13T22:13:20.648Z,54.60
2023-01-13T22:15:47.494Z,54.77
2023-01-13T22:18:14.281Z,54.88
2023-01-13T22:20:42.053Z,55.01
2023-01-13T22:23:08.753Z,54.86
2023-01-13T22:25:35.450Z,55.09
2023-01-13T22:28:05.985Z,55.15
2023-01-13T22:30:33.329Z,54.97
2023-01-13T22:33:00.729Z,54.93
2023-01-13T22:35:27.541Z,55.12
2023-01-13T22:37:54.246Z,55.10
2023-01-13T22:40:21.047Z,55.15
2023-01-13T22:42:47.866Z,55.10
2023-01-13T22:45:14.718Z,55.24
2023-01-13T22:47:41.501Z,55.14
2023-01-13T22:50:09.155Z,55.14
2023-01-13T22:52:35.850Z,55.43
2023-01-13T22:55:03.060Z,55.41
2023-01-13T22:57:36.083Z,55.88
2023-01-13T23:00:06.861Z,55.53
2023-01-13T23:02:34.612Z,55.55
2023-01-13T23:05:01.807Z,55.62
2023-01-13T23:07:28.838Z,55.50
2023-01-13T23:09:55.739Z,55.62
2023-01-13T23:12:22.727Z,55.60
2023-01-13T23:14:49.867Z,55.53
2023-01-13T23:17:16.695Z,55.62
2023-01-13T23:19:46.843Z,55.70
2023-01-13T23:22:13.597Z,55.64
2023-01-13T23:24:40.310Z,55.71
2023-01-13T23:27:07.202Z,55.51
2023-01-13T23:29:33.831Z,55.72
2023-01-13T23:32:00.532Z,55.77
2023-01-13T23:34:27.149Z,55.70
2023-01-13T23:36:53.803Z,55.81
2023-01-13T23:39:20.519Z,55.88
2023-01-13T23:41:47.389Z,55.95
2023-01-13T23:44:14.016Z,56.08
2023-01-13T23:46:40.846Z,56.01
2023-01-13T23:49:08.051Z,56.17
2023-01-13T23:51:34.801Z,56.26
2023-01-13T23:54:01.671Z,56.17
2023-01-13T23:56:31.100Z,56.17
2023-01-13T23:58:57.936Z,56.31
